sensor_id;sensor_type;location;lat;lon;timestamp;P1;durP1;ratioP1;P2;durP2;ratioP2
55575;SDS011;41437;45.478;9.116;2023-02-26T00:02:17;37.90;;;22.38;;
55575;SDS011;41437;45.478;9.116;2023-02-26T00:05:18;42.72;;;24.00;;
55575;SDS011;41437;45.478;9.116;2023-02-26T00:08:20;45.00;;;24.17;;
55575;SDS011;41437;45.478;9.116;2023-02-26T00:11:26;38.80;;;23.58;;
55575;SDS011;41437;45.478;9.116;2023-02-26T00:14:28;38.95;;;24.02;;
55575;SDS011;41437;45.478;9.116;2023-02-26T00:17:35;45.90;;;26.33;;
55575;SDS011;41437;45.478;9.116;2023-02-26T00:20:42;42.40;;;24.17;;
55575;SDS011;41437;45.478;9.116;2023-02-26T00:23:44;48.33;;;25.95;;
55575;SDS011;41437;45.478;9.116;2023-02-26T00:26:47;53.00;;;26.58;;
55575;SDS011;41437;45.478;9.116;2023-02-26T00:29:49;41.72;;;23.98;;
55575;SDS011;41437;45.478;9.116;2023-02-26T00:32:54;41.22;;;24.95;;
55575;SDS011;41437;45.478;9.116;2023-02-26T00:35:58;44.00;;;26.20;;
55575;SDS011;41437;45.478;9.116;2023-02-26T00:39:12;44.70;;;24.77;;
55575;SDS011;41437;45.478;9.116;2023-02-26T00:45:27;45.65;;;25.25;;
55575;SDS011;41437;45.478;9.116;2023-02-26T00:48:39;44.78;;;24.95;;
55575;SDS011;41437;45.478;9.116;2023-02-26T00:51:54;38.75;;;23.65;;
55575;SDS011;41437;45.478;9.116;2023-02-26T00:54:57;40.63;;;23.42;;
55575;SDS011;41437;45.478;9.116;2023-02-26T00:58:00;45.63;;;24.55;;
55575;SDS011;41437;45.478;9.116;2023-02-26T01:01:01;43.05;;;25.35;;
55575;SDS011;41437;45.478;9.116;2023-02-26T01:04:04;39.35;;;24.52;;
55575;SDS011;41437;45.478;9.116;2023-02-26T01:07:06;55.75;;;29.48;;
55575;SDS011;41437;45.478;9.116;2023-02-26T01:10:09;43.72;;;28.30;;
55575;SDS011;41437;45.478;9.116;2023-02-26T01:13:14;48.15;;;29.27;;
55575;SDS011;41437;45.478;9.116;2023-02-26T01:16:16;49.17;;;27.50;;
55575;SDS011;41437;45.478;9.116;2023-02-26T01:19:24;51.40;;;28.90;;
55575;SDS011;41437;45.478;9.116;2023-02-26T01:22:32;53.63;;;28.92;;
55575;SDS011;41437;45.478;9.116;2023-02-26T01:25:40;59.08;;;29.83;;
55575;SDS011;41437;45.478;9.116;2023-02-26T01:28:49;55.83;;;30.80;;
55575;SDS011;41437;45.478;9.116;2023-02-26T01:31:52;39.80;;;25.77;;
55575;SDS011;41437;45.478;9.116;2023-02-26T01:35:01;46.67;;;28.27;;
55575;SDS011;41437;45.478;9.116;2023-02-26T01:38:12;46.35;;;27.42;;
55575;SDS011;41437;45.478;9.116;2023-02-26T01:41:25;52.40;;;27.45;;
55575;SDS011;41437;45.478;9.116;2023-02-26T01:44:33;39.42;;;25.10;;
55575;SDS011;41437;45.478;9.116;2023-02-26T01:47:44;47.13;;;26.65;;
55575;SDS011;41437;45.478;9.116;2023-02-26T01:50:49;44.55;;;27.17;;
55575;SDS011;41437;45.478;9.116;2023-02-26T01:53:51;45.67;;;26.42;;
55575;SDS011;41437;45.478;9.116;2023-02-26T01:56:55;43.75;;;26.23;;
55575;SDS011;41437;45.478;9.116;2023-02-26T02:00:00;46.25;;;26.42;;
55575;SDS011;41437;45.478;9.116;2023-02-26T02:03:04;43.25;;;24.45;;
55575;SDS011;41437;45.478;9.116;2023-02-26T02:06:07;45.47;;;25.88;;
55575;SDS011;41437;45.478;9.116;2023-02-26T02:09:11;41.08;;;25.25;;
55575;SDS011;41437;45.478;9.116;2023-02-26T02:12:17;48.08;;;25.98;;
55575;SDS011;41437;45.478;9.116;2023-02-26T02:15:28;45.20;;;25.45;;
55575;SDS011;41437;45.478;9.116;2023-02-26T02:18:37;46.42;;;25.08;;
55575;SDS011;41437;45.478;9.116;2023-02-26T02:21:49;45.15;;;24.08;;
55575;SDS011;41437;45.478;9.116;2023-02-26T02:25:07;47.08;;;25.23;;
55575;SDS011;41437;45.478;9.116;2023-02-26T02:28:22;45.58;;;26.60;;
55575;SDS011;41437;45.478;9.116;2023-02-26T02:31:37;44.97;;;26.33;;
55575;SDS011;41437;45.478;9.116;2023-02-26T02:34:45;43.53;;;24.08;;
55575;SDS011;41437;45.478;9.116;2023-02-26T02:37:53;41.33;;;23.90;;
55575;SDS011;41437;45.478;9.116;2023-02-26T02:41:02;44.45;;;25.92;;
55575;SDS011;41437;45.478;9.116;2023-02-26T02:44:09;45.78;;;25.88;;
55575;SDS011;41437;45.478;9.116;2023-02-26T02:47:15;49.78;;;27.95;;
55575;SDS011;41437;45.478;9.116;2023-02-26T02:50:21;47.10;;;27.25;;
55575;SDS011;41437;45.478;9.116;2023-02-26T02:53:29;46.40;;;26.58;;
55575;SDS011;41437;45.478;9.116;2023-02-26T02:56:36;44.83;;;24.25;;
55575;SDS011;41437;45.478;9.116;2023-02-26T02:59:46;50.38;;;26.30;;
55575;SDS011;41437;45.478;9.116;2023-02-26T03:02:54;44.70;;;25.67;;
55575;SDS011;41437;45.478;9.116;2023-02-26T03:06:01;39.25;;;24.63;;
55575;SDS011;41437;45.478;9.116;2023-02-26T03:09:03;43.72;;;25.52;;
55575;SDS011;41437;45.478;9.116;2023-02-26T03:12:06;45.92;;;26.65;;
55575;SDS011;41437;45.478;9.116;2023-02-26T03:15:08;42.67;;;24.85;;
55575;SDS011;41437;45.478;9.116;2023-02-26T03:18:20;44.50;;;24.42;;
55575;SDS011;41437;45.478;9.116;2023-02-26T03:21:28;37.13;;;22.48;;
55575;SDS011;41437;45.478;9.116;2023-02-26T03:24:35;43.97;;;23.83;;
55575;SDS011;41437;45.478;9.116;2023-02-26T03:27:41;41.13;;;22.90;;
55575;SDS011;41437;45.478;9.116;2023-02-26T03:30:47;40.92;;;23.15;;
55575;SDS011;41437;45.478;9.116;2023-02-26T03:33:58;34.42;;;20.23;;
55575;SDS011;41437;45.478;9.116;2023-02-26T03:37:03;42.95;;;23.80;;
55575;SDS011;41437;45.478;9.116;2023-02-26T03:40:10;45.65;;;23.50;;
55575;SDS011;41437;45.478;9.116;2023-02-26T03:43:17;47.47;;;25.75;;
55575;SDS011;41437;45.478;9.116;2023-02-26T03:46:22;43.25;;;23.38;;
55575;SDS011;41437;45.478;9.116;2023-02-26T03:49:31;42.40;;;24.45;;
55575;SDS011;41437;45.478;9.116;2023-02-26T03:52:40;48.35;;;25.15;;
55575;SDS011;41437;45.478;9.116;2023-02-26T03:55:46;41.00;;;24.55;;
55575;SDS011;41437;45.478;9.116;2023-02-26T03:58:51;36.35;;;22.08;;
55575;SDS011;41437;45.478;9.116;2023-02-26T04:01:54;36.17;;;21.73;;
55575;SDS011;41437;45.478;9.116;2023-02-26T04:05:02;42.85;;;25.65;;
55575;SDS011;41437;45.478;9.116;2023-02-26T04:08:09;45.47;;;25.42;;
55575;SDS011;41437;45.478;9.116;2023-02-26T04:11:11;46.97;;;25.38;;
55575;SDS011;41437;45.478;9.116;2023-02-26T04:14:16;47.08;;;24.65;;
55575;SDS011;41437;45.478;9.116;2023-02-26T04:17:17;37.65;;;22.25;;
55575;SDS011;41437;45.478;9.116;2023-02-26T04:20:20;34.20;;;20.38;;
55575;SDS011;41437;45.478;9.116;2023-02-26T04:23:22;36.45;;;18.38;;
55575;SDS011;41437;45.478;9.116;2023-02-26T04:26:24;37.58;;;19.63;;
55575;SDS011;41437;45.478;9.116;2023-02-26T04:29:25;39.05;;;19.65;;
55575;SDS011;41437;45.478;9.116;2023-02-26T04:32:27;36.85;;;19.00;;
55575;SDS011;41437;45.478;9.116;2023-02-26T04:35:32;35.72;;;20.77;;
55575;SDS011;41437;45.478;9.116;2023-02-26T04:38:33;42.30;;;22.23;;
55575;SDS011;41437;45.478;9.116;2023-02-26T04:41:35;40.30;;;22.15;;
55575;SDS011;41437;45.478;9.116;2023-02-26T04:44:36;41.08;;;23.42;;
55575;SDS011;41437;45.478;9.116;2023-02-26T04:47:38;44.78;;;24.63;;
55575;SDS011;41437;45.478;9.116;2023-02-26T04:50:43;46.00;;;25.20;;
55575;SDS011;41437;45.478;9.116;2023-02-26T04:53:45;52.05;;;26.90;;
55575;SDS011;41437;45.478;9.116;2023-02-26T04:56:46;57.20;;;29.42;;
55575;SDS011;41437;45.478;9.116;2023-02-26T04:59:48;60.50;;;31.35;;
55575;SDS011;41437;45.478;9.116;2023-02-26T05:02:49;66.80;;;33.80;;
55575;SDS011;41437;45.478;9.116;2023-02-26T05:05:54;73.78;;;35.70;;
55575;SDS011;41437;45.478;9.116;2023-02-26T05:08:55;78.43;;;36.42;;
55575;SDS011;41437;45.478;9.116;2023-02-26T05:11:57;76.95;;;35.63;;
55575;SDS011;41437;45.478;9.116;2023-02-26T05:14:58;74.63;;;37.03;;
55575;SDS011;41437;45.478;9.116;2023-02-26T05:21:05;89.20;;;41.42;;
55575;SDS011;41437;45.478;9.116;2023-02-26T05:24:07;95.07;;;43.40;;
55575;SDS011;41437;45.478;9.116;2023-02-26T05:27:08;89.80;;;43.53;;
55575;SDS011;41437;45.478;9.116;2023-02-26T05:30:10;56.63;;;28.15;;
55575;SDS011;41437;45.478;9.116;2023-02-26T05:33:14;56.10;;;26.50;;
55575;SDS011;41437;45.478;9.116;2023-02-26T05:36:17;43.65;;;20.58;;
55575;SDS011;41437;45.478;9.116;2023-02-26T05:39:19;38.47;;;16.10;;
55575;SDS011;41437;45.478;9.116;2023-02-26T05:42:20;20.63;;;10.73;;
55575;SDS011;41437;45.478;9.116;2023-02-26T05:45:22;16.30;;;6.43;;
55575;SDS011;41437;45.478;9.116;2023-02-26T05:48:23;11.60;;;4.85;;
55575;SDS011;41437;45.478;9.116;2023-02-26T05:51:26;12.95;;;4.60;;
55575;SDS011;41437;45.478;9.116;2023-02-26T05:54:28;11.57;;;4.07;;
55575;SDS011;41437;45.478;9.116;2023-02-26T05:57:30;12.52;;;3.92;;
55575;SDS011;41437;45.478;9.116;2023-02-26T06:00:31;10.88;;;3.75;;
55575;SDS011;41437;45.478;9.116;2023-02-26T06:03:33;8.40;;;2.90;;
55575;SDS011;41437;45.478;9.116;2023-02-26T06:06:36;6.88;;;2.25;;
55575;SDS011;41437;45.478;9.116;2023-02-26T06:09:38;5.28;;;2.08;;
55575;SDS011;41437;45.478;9.116;2023-02-26T06:12:39;8.13;;;2.20;;
55575;SDS011;41437;45.478;9.116;2023-02-26T06:15:41;4.32;;;1.70;;
55575;SDS011;41437;45.478;9.116;2023-02-26T06:18:42;5.13;;;1.60;;
55575;SDS011;41437;45.478;9.116;2023-02-26T06:21:45;5.03;;;1.60;;
55575;SDS011;41437;45.478;9.116;2023-02-26T06:24:46;5.60;;;1.70;;
55575;SDS011;41437;45.478;9.116;2023-02-26T06:27:48;3.78;;;1.58;;
55575;SDS011;41437;45.478;9.116;2023-02-26T06:30:50;3.22;;;1.50;;
55575;SDS011;41437;45.478;9.116;2023-02-26T06:33:52;6.18;;;1.38;;
55575;SDS011;41437;45.478;9.116;2023-02-26T06:36:55;3.85;;;1.40;;
55575;SDS011;41437;45.478;9.116;2023-02-26T06:39:57;5.18;;;1.45;;
55575;SDS011;41437;45.478;9.116;2023-02-26T06:42:58;4.80;;;1.55;;
55575;SDS011;41437;45.478;9.116;2023-02-26T06:46:00;4.03;;;1.30;;
55575;SDS011;41437;45.478;9.116;2023-02-26T06:49:02;4.25;;;1.50;;
55575;SDS011;41437;45.478;9.116;2023-02-26T06:52:05;2.72;;;1.27;;
55575;SDS011;41437;45.478;9.116;2023-02-26T06:55:07;3.88;;;1.55;;
55575;SDS011;41437;45.478;9.116;2023-02-26T06:58:09;3.90;;;1.50;;
55575;SDS011;41437;45.478;9.116;2023-02-26T07:01:11;3.83;;;1.70;;
55575;SDS011;41437;45.478;9.116;2023-02-26T07:04:12;3.97;;;1.50;;
55575;SDS011;41437;45.478;9.116;2023-02-26T07:07:15;4.93;;;1.50;;
55575;SDS011;41437;45.478;9.116;2023-02-26T07:10:17;3.03;;;1.40;;
55575;SDS011;41437;45.478;9.116;2023-02-26T07:13:20;4.90;;;1.77;;
55575;SDS011;41437;45.478;9.116;2023-02-26T07:16:22;3.70;;;1.40;;
55575;SDS011;41437;45.478;9.116;2023-02-26T07:19:23;3.35;;;1.40;;
55575;SDS011;41437;45.478;9.116;2023-02-26T07:22:26;2.58;;;1.17;;
55575;SDS011;41437;45.478;9.116;2023-02-26T07:25:28;5.00;;;1.20;;
55575;SDS011;41437;45.478;9.116;2023-02-26T07:28:29;3.70;;;1.40;;
55575;SDS011;41437;45.478;9.116;2023-02-26T07:31:33;2.53;;;1.20;;
55575;SDS011;41437;45.478;9.116;2023-02-26T07:34:36;4.30;;;1.00;;
55575;SDS011;41437;45.478;9.116;2023-02-26T07:37:38;2.45;;;1.00;;
55575;SDS011;41437;45.478;9.116;2023-02-26T07:40:40;3.67;;;1.00;;
55575;SDS011;41437;45.478;9.116;2023-02-26T07:43:41;2.58;;;0.90;;
55575;SDS011;41437;45.478;9.116;2023-02-26T07:46:43;2.63;;;0.90;;
55575;SDS011;41437;45.478;9.116;2023-02-26T07:49:45;4.70;;;1.00;;
55575;SDS011;41437;45.478;9.116;2023-02-26T07:52:47;2.55;;;0.90;;
55575;SDS011;41437;45.478;9.116;2023-02-26T07:55:49;2.45;;;1.10;;
55575;SDS011;41437;45.478;9.116;2023-02-26T07:58:50;2.40;;;1.05;;
55575;SDS011;41437;45.478;9.116;2023-02-26T08:01:52;3.70;;;0.90;;
55575;SDS011;41437;45.478;9.116;2023-02-26T08:04:54;2.00;;;1.00;;
55575;SDS011;41437;45.478;9.116;2023-02-26T08:07:58;2.30;;;1.20;;
55575;SDS011;41437;45.478;9.116;2023-02-26T08:11:01;2.13;;;1.00;;
55575;SDS011;41437;45.478;9.116;2023-02-26T08:14:02;2.70;;;1.05;;
55575;SDS011;41437;45.478;9.116;2023-02-26T08:17:04;4.40;;;1.10;;
55575;SDS011;41437;45.478;9.116;2023-02-26T08:20:06;4.07;;;1.27;;
55575;SDS011;41437;45.478;9.116;2023-02-26T08:23:10;2.47;;;1.00;;
55575;SDS011;41437;45.478;9.116;2023-02-26T08:26:11;2.80;;;1.00;;
55575;SDS011;41437;45.478;9.116;2023-02-26T08:29:13;3.15;;;0.80;;
55575;SDS011;41437;45.478;9.116;2023-02-26T08:32:15;2.40;;;1.10;;
55575;SDS011;41437;45.478;9.116;2023-02-26T08:35:18;2.10;;;1.00;;
55575;SDS011;41437;45.478;9.116;2023-02-26T08:38:21;2.58;;;1.13;;
55575;SDS011;41437;45.478;9.116;2023-02-26T08:41:23;2.23;;;0.90;;
55575;SDS011;41437;45.478;9.116;2023-02-26T08:44:26;1.90;;;0.93;;
55575;SDS011;41437;45.478;9.116;2023-02-26T08:47:27;3.08;;;1.15;;
55575;SDS011;41437;45.478;9.116;2023-02-26T08:50:29;2.40;;;1.10;;
55575;SDS011;41437;45.478;9.116;2023-02-26T08:53:32;2.28;;;1.15;;
55575;SDS011;41437;45.478;9.116;2023-02-26T08:56:33;2.42;;;1.10;;
55575;SDS011;41437;45.478;9.116;2023-02-26T08:59:35;2.10;;;1.00;;
55575;SDS011;41437;45.478;9.116;2023-02-26T09:02:36;2.33;;;1.02;;
55575;SDS011;41437;45.478;9.116;2023-02-26T09:05:38;1.73;;;0.80;;
55575;SDS011;41437;45.478;9.116;2023-02-26T09:08:41;2.58;;;1.10;;
55575;SDS011;41437;45.478;9.116;2023-02-26T09:11:46;2.30;;;1.00;;
55575;SDS011;41437;45.478;9.116;2023-02-26T09:14:47;1.98;;;0.90;;
55575;SDS011;41437;45.478;9.116;2023-02-26T09:17:49;2.45;;;1.00;;
55575;SDS011;41437;45.478;9.116;2023-02-26T09:20:51;2.78;;;1.00;;
55575;SDS011;41437;45.478;9.116;2023-02-26T09:23:54;2.30;;;1.00;;
55575;SDS011;41437;45.478;9.116;2023-02-26T09:26:56;1.35;;;1.02;;
55575;SDS011;41437;45.478;9.116;2023-02-26T09:29:57;2.58;;;1.10;;
55575;SDS011;41437;45.478;9.116;2023-02-26T09:32:59;3.03;;;0.80;;
55575;SDS011;41437;45.478;9.116;2023-02-26T09:36:00;2.35;;;1.10;;
55575;SDS011;41437;45.478;9.116;2023-02-26T09:39:03;4.65;;;1.13;;
55575;SDS011;41437;45.478;9.116;2023-02-26T09:42:07;3.05;;;1.05;;
55575;SDS011;41437;45.478;9.116;2023-02-26T09:45:19;2.97;;;1.00;;
55575;SDS011;41437;45.478;9.116;2023-02-26T09:48:26;2.25;;;1.10;;
55575;SDS011;41437;45.478;9.116;2023-02-26T09:51:31;2.22;;;1.05;;
55575;SDS011;41437;45.478;9.116;2023-02-26T09:54:39;1.92;;;0.85;;
55575;SDS011;41437;45.478;9.116;2023-02-26T09:57:46;5.85;;;1.20;;
55575;SDS011;41437;45.478;9.116;2023-02-26T10:00:52;3.33;;;1.00;;
55575;SDS011;41437;45.478;9.116;2023-02-26T10:04:04;1.98;;;1.00;;
55575;SDS011;41437;45.478;9.116;2023-02-26T10:07:17;1.70;;;1.00;;
55575;SDS011;41437;45.478;9.116;2023-02-26T10:10:31;2.13;;;1.08;;
55575;SDS011;41437;45.478;9.116;2023-02-26T10:13:39;2.70;;;1.20;;
55575;SDS011;41437;45.478;9.116;2023-02-26T10:16:45;3.05;;;1.20;;
55575;SDS011;41437;45.478;9.116;2023-02-26T10:19:56;2.58;;;1.00;;
55575;SDS011;41437;45.478;9.116;2023-02-26T10:23:01;3.58;;;1.25;;
55575;SDS011;41437;45.478;9.116;2023-02-26T10:26:10;2.08;;;1.00;;
55575;SDS011;41437;45.478;9.116;2023-02-26T10:29:16;3.47;;;1.20;;
55575;SDS011;41437;45.478;9.116;2023-02-26T10:32:23;3.92;;;1.38;;
55575;SDS011;41437;45.478;9.116;2023-02-26T10:35:30;3.50;;;1.33;;
55575;SDS011;41437;45.478;9.116;2023-02-26T10:38:37;2.20;;;1.10;;
55575;SDS011;41437;45.478;9.116;2023-02-26T10:41:40;2.83;;;1.20;;
55575;SDS011;41437;45.478;9.116;2023-02-26T10:44:43;3.25;;;1.40;;
55575;SDS011;41437;45.478;9.116;2023-02-26T10:47:52;3.00;;;1.42;;
55575;SDS011;41437;45.478;9.116;2023-02-26T10:51:04;2.25;;;1.23;;
55575;SDS011;41437;45.478;9.116;2023-02-26T10:54:13;2.70;;;1.30;;
55575;SDS011;41437;45.478;9.116;2023-02-26T10:57:22;2.20;;;1.13;;
55575;SDS011;41437;45.478;9.116;2023-02-26T11:00:26;4.32;;;1.67;;
55575;SDS011;41437;45.478;9.116;2023-02-26T11:03:29;3.42;;;1.30;;
55575;SDS011;41437;45.478;9.116;2023-02-26T11:06:37;3.20;;;1.50;;
55575;SDS011;41437;45.478;9.116;2023-02-26T11:09:44;4.75;;;1.30;;
55575;SDS011;41437;45.478;9.116;2023-02-26T11:12:49;2.38;;;1.23;;
55575;SDS011;41437;45.478;9.116;2023-02-26T11:15:53;8.90;;;4.85;;
55575;SDS011;41437;45.478;9.116;2023-02-26T11:18:57;4.15;;;1.75;;
55575;SDS011;41437;45.478;9.116;2023-02-26T11:22:05;4.25;;;1.75;;
55575;SDS011;41437;45.478;9.116;2023-02-26T11:28:22;3.60;;;1.73;;
55575;SDS011;41437;45.478;9.116;2023-02-26T11:31:30;3.58;;;1.70;;
55575;SDS011;41437;45.478;9.116;2023-02-26T11:34:32;4.47;;;1.60;;
55575;SDS011;41437;45.478;9.116;2023-02-26T11:37:36;4.25;;;1.60;;
55575;SDS011;41437;45.478;9.116;2023-02-26T11:43:44;5.43;;;2.55;;
55575;SDS011;41437;45.478;9.116;2023-02-26T11:46:49;3.03;;;1.88;;
55575;SDS011;41437;45.478;9.116;2023-02-26T11:49:53;7.03;;;1.77;;
55575;SDS011;41437;45.478;9.116;2023-02-26T11:52:56;4.47;;;1.42;;
55575;SDS011;41437;45.478;9.116;2023-02-26T11:56:07;4.13;;;1.98;;
55575;SDS011;41437;45.478;9.116;2023-02-26T11:59:17;4.05;;;2.45;;
55575;SDS011;41437;45.478;9.116;2023-02-26T12:02:21;3.95;;;2.30;;
55575;SDS011;41437;45.478;9.116;2023-02-26T12:08:30;5.38;;;2.45;;
55575;SDS011;41437;45.478;9.116;2023-02-26T12:15:21;5.50;;;2.78;;
55575;SDS011;41437;45.478;9.116;2023-02-26T12:18:35;3.88;;;2.25;;
55575;SDS011;41437;45.478;9.116;2023-02-26T12:21:49;4.82;;;2.63;;
55575;SDS011;41437;45.478;9.116;2023-02-26T12:25:10;6.28;;;3.08;;
55575;SDS011;41437;45.478;9.116;2023-02-26T12:28:40;4.80;;;2.85;;
55575;SDS011;41437;45.478;9.116;2023-02-26T12:32:00;5.82;;;2.80;;
55575;SDS011;41437;45.478;9.116;2023-02-26T12:35:26;5.78;;;2.60;;
55575;SDS011;41437;45.478;9.116;2023-02-26T12:38:47;4.88;;;2.60;;
55575;SDS011;41437;45.478;9.116;2023-02-26T12:41:58;4.97;;;2.83;;
55575;SDS011;41437;45.478;9.116;2023-02-26T12:52:08;4.78;;;3.03;;
55575;SDS011;41437;45.478;9.116;2023-02-26T12:55:24;4.57;;;2.53;;
55575;SDS011;41437;45.478;9.116;2023-02-26T12:58:46;4.47;;;2.42;;
55575;SDS011;41437;45.478;9.116;2023-02-26T13:02:01;6.15;;;2.53;;
55575;SDS011;41437;45.478;9.116;2023-02-26T13:05:28;5.80;;;2.67;;
55575;SDS011;41437;45.478;9.116;2023-02-26T13:08:43;4.15;;;2.20;;
55575;SDS011;41437;45.478;9.116;2023-02-26T13:11:52;4.28;;;2.47;;
55575;SDS011;41437;45.478;9.116;2023-02-26T13:15:05;5.68;;;2.50;;
55575;SDS011;41437;45.478;9.116;2023-02-26T13:18:20;6.47;;;2.65;;
55575;SDS011;41437;45.478;9.116;2023-02-26T13:21:30;4.40;;;2.30;;
55575;SDS011;41437;45.478;9.116;2023-02-26T13:24:37;6.10;;;2.40;;
55575;SDS011;41437;45.478;9.116;2023-02-26T13:27:43;5.00;;;2.47;;
55575;SDS011;41437;45.478;9.116;2023-02-26T13:30:48;4.55;;;2.35;;
55575;SDS011;41437;45.478;9.116;2023-02-26T13:33:53;4.70;;;2.47;;
55575;SDS011;41437;45.478;9.116;2023-02-26T13:36:59;4.45;;;2.20;;
55575;SDS011;41437;45.478;9.116;2023-02-26T13:40:10;3.95;;;2.17;;
55575;SDS011;41437;45.478;9.116;2023-02-26T13:43:46;4.25;;;2.22;;
55575;SDS011;41437;45.478;9.116;2023-02-26T13:47:02;3.53;;;2.20;;
55575;SDS011;41437;45.478;9.116;2023-02-26T13:50:21;4.15;;;2.22;;
55575;SDS011;41437;45.478;9.116;2023-02-26T13:57:05;5.20;;;2.10;;
55575;SDS011;41437;45.478;9.116;2023-02-26T14:00:20;5.82;;;2.17;;
55575;SDS011;41437;45.478;9.116;2023-02-26T14:03:31;4.40;;;2.33;;
55575;SDS011;41437;45.478;9.116;2023-02-26T14:06:37;4.53;;;2.30;;
55575;SDS011;41437;45.478;9.116;2023-02-26T14:09:46;3.65;;;2.00;;
55575;SDS011;41437;45.478;9.116;2023-02-26T14:13:09;4.35;;;2.40;;
55575;SDS011;41437;45.478;9.116;2023-02-26T14:16:19;4.78;;;2.60;;
55575;SDS011;41437;45.478;9.116;2023-02-26T14:19:32;4.07;;;2.22;;
55575;SDS011;41437;45.478;9.116;2023-02-26T14:22:40;4.22;;;2.60;;
55575;SDS011;41437;45.478;9.116;2023-02-26T14:25:46;4.38;;;2.53;;
55575;SDS011;41437;45.478;9.116;2023-02-26T14:28:56;6.18;;;2.85;;
55575;SDS011;41437;45.478;9.116;2023-02-26T14:32:14;4.63;;;2.42;;
55575;SDS011;41437;45.478;9.116;2023-02-26T14:35:23;5.30;;;2.40;;
55575;SDS011;41437;45.478;9.116;2023-02-26T14:38:27;5.40;;;2.28;;
55575;SDS011;41437;45.478;9.116;2023-02-26T14:41:37;4.70;;;2.53;;
55575;SDS011;41437;45.478;9.116;2023-02-26T14:44:42;4.65;;;2.25;;
55575;SDS011;41437;45.478;9.116;2023-02-26T14:47:46;5.80;;;1.90;;
55575;SDS011;41437;45.478;9.116;2023-02-26T14:50:51;3.97;;;2.00;;
55575;SDS011;41437;45.478;9.116;2023-02-26T14:57:38;4.47;;;2.10;;
55575;SDS011;41437;45.478;9.116;2023-02-26T15:00:48;3.30;;;1.90;;
55575;SDS011;41437;45.478;9.116;2023-02-26T15:08:05;4.03;;;1.77;;
55575;SDS011;41437;45.478;9.116;2023-02-26T15:11:31;3.25;;;1.65;;
55575;SDS011;41437;45.478;9.116;2023-02-26T15:14:56;3.13;;;1.70;;
55575;SDS011;41437;45.478;9.116;2023-02-26T15:18:08;4.70;;;1.98;;
55575;SDS011;41437;45.478;9.116;2023-02-26T15:21:22;5.68;;;2.00;;
55575;SDS011;41437;45.478;9.116;2023-02-26T15:24:31;3.25;;;1.80;;
55575;SDS011;41437;45.478;9.116;2023-02-26T15:27:32;4.45;;;2.00;;
55575;SDS011;41437;45.478;9.116;2023-02-26T15:30:37;3.50;;;1.80;;
55575;SDS011;41437;45.478;9.116;2023-02-26T15:33:47;4.20;;;1.90;;
55575;SDS011;41437;45.478;9.116;2023-02-26T15:36:50;5.30;;;1.97;;
55575;SDS011;41437;45.478;9.116;2023-02-26T15:39:53;4.28;;;2.05;;
55575;SDS011;41437;45.478;9.116;2023-02-26T15:42:55;5.15;;;2.63;;
55575;SDS011;41437;45.478;9.116;2023-02-26T15:45:59;7.00;;;3.35;;
55575;SDS011;41437;45.478;9.116;2023-02-26T15:49:03;5.72;;;3.10;;
55575;SDS011;41437;45.478;9.116;2023-02-26T15:52:09;5.18;;;2.67;;
55575;SDS011;41437;45.478;9.116;2023-02-26T15:55:15;5.20;;;2.72;;
55575;SDS011;41437;45.478;9.116;2023-02-26T15:58:18;7.85;;;2.85;;
55575;SDS011;41437;45.478;9.116;2023-02-26T16:04:26;5.80;;;3.00;;
55575;SDS011;41437;45.478;9.116;2023-02-26T16:07:27;6.07;;;2.97;;
55575;SDS011;41437;45.478;9.116;2023-02-26T16:10:31;4.78;;;2.83;;
55575;SDS011;41437;45.478;9.116;2023-02-26T16:13:37;5.85;;;2.70;;
55575;SDS011;41437;45.478;9.116;2023-02-26T16:16:43;4.82;;;2.85;;
55575;SDS011;41437;45.478;9.116;2023-02-26T16:19:49;6.00;;;2.72;;
55575;SDS011;41437;45.478;9.116;2023-02-26T16:22:53;4.85;;;2.50;;
55575;SDS011;41437;45.478;9.116;2023-02-26T16:25:58;4.45;;;2.70;;
55575;SDS011;41437;45.478;9.116;2023-02-26T16:29:04;5.72;;;2.60;;
55575;SDS011;41437;45.478;9.116;2023-02-26T16:32:11;5.35;;;2.35;;
55575;SDS011;41437;45.478;9.116;2023-02-26T16:35:18;4.40;;;2.38;;
55575;SDS011;41437;45.478;9.116;2023-02-26T16:38:23;3.33;;;1.88;;
55575;SDS011;41437;45.478;9.116;2023-02-26T16:41:27;5.13;;;2.20;;
55575;SDS011;41437;45.478;9.116;2023-02-26T16:44:39;5.30;;;2.50;;
55575;SDS011;41437;45.478;9.116;2023-02-26T16:47:50;5.68;;;2.47;;
55575;SDS011;41437;45.478;9.116;2023-02-26T16:50:56;4.53;;;2.25;;
55575;SDS011;41437;45.478;9.116;2023-02-26T16:54:00;8.35;;;4.03;;
55575;SDS011;41437;45.478;9.116;2023-02-26T16:57:07;5.65;;;3.10;;
55575;SDS011;41437;45.478;9.116;2023-02-26T17:03:31;4.57;;;2.42;;
55575;SDS011;41437;45.478;9.116;2023-02-26T17:06:33;4.53;;;2.35;;
55575;SDS011;41437;45.478;9.116;2023-02-26T17:09:39;5.47;;;2.42;;
55575;SDS011;41437;45.478;9.116;2023-02-26T17:12:47;4.65;;;2.65;;
55575;SDS011;41437;45.478;9.116;2023-02-26T17:15:50;6.32;;;2.83;;
55575;SDS011;41437;45.478;9.116;2023-02-26T17:18:54;5.10;;;3.10;;
55575;SDS011;41437;45.478;9.116;2023-02-26T17:21:56;4.95;;;3.28;;
55575;SDS011;41437;45.478;9.116;2023-02-26T17:24:58;6.90;;;4.45;;
55575;SDS011;41437;45.478;9.116;2023-02-26T17:27:59;4.25;;;2.58;;
55575;SDS011;41437;45.478;9.116;2023-02-26T17:31:02;5.53;;;2.60;;
55575;SDS011;41437;45.478;9.116;2023-02-26T17:34:08;4.63;;;2.70;;
55575;SDS011;41437;45.478;9.116;2023-02-26T17:37:11;5.57;;;2.67;;
55575;SDS011;41437;45.478;9.116;2023-02-26T17:40:16;4.32;;;2.50;;
55575;SDS011;41437;45.478;9.116;2023-02-26T17:43:20;4.53;;;2.95;;
55575;SDS011;41437;45.478;9.116;2023-02-26T17:46:23;6.97;;;3.40;;
55575;SDS011;41437;45.478;9.116;2023-02-26T17:49:26;7.00;;;4.47;;
55575;SDS011;41437;45.478;9.116;2023-02-26T17:52:31;8.90;;;5.22;;
55575;SDS011;41437;45.478;9.116;2023-02-26T17:55:34;9.75;;;5.60;;
55575;SDS011;41437;45.478;9.116;2023-02-26T17:58:41;6.55;;;4.15;;
55575;SDS011;41437;45.478;9.116;2023-02-26T18:01:44;7.38;;;4.38;;
55575;SDS011;41437;45.478;9.116;2023-02-26T18:04:47;6.63;;;4.22;;
55575;SDS011;41437;45.478;9.116;2023-02-26T18:07:51;7.57;;;3.97;;
55575;SDS011;41437;45.478;9.116;2023-02-26T18:10:53;6.70;;;4.22;;
55575;SDS011;41437;45.478;9.116;2023-02-26T18:13:55;6.10;;;3.88;;
55575;SDS011;41437;45.478;9.116;2023-02-26T18:16:56;7.65;;;4.78;;
55575;SDS011;41437;45.478;9.116;2023-02-26T18:20:00;11.35;;;5.93;;
55575;SDS011;41437;45.478;9.116;2023-02-26T18:23:04;8.25;;;4.88;;
55575;SDS011;41437;45.478;9.116;2023-02-26T18:26:08;8.80;;;5.10;;
55575;SDS011;41437;45.478;9.116;2023-02-26T18:29:10;7.83;;;5.40;;
55575;SDS011;41437;45.478;9.116;2023-02-26T18:32:12;11.15;;;6.18;;
55575;SDS011;41437;45.478;9.116;2023-02-26T18:35:16;8.25;;;5.63;;
55575;SDS011;41437;45.478;9.116;2023-02-26T18:38:18;7.07;;;4.63;;
55575;SDS011;41437;45.478;9.116;2023-02-26T18:41:21;9.02;;;5.38;;
55575;SDS011;41437;45.478;9.116;2023-02-26T18:44:23;8.10;;;5.15;;
55575;SDS011;41437;45.478;9.116;2023-02-26T18:50:30;31.15;;;17.45;;
55575;SDS011;41437;45.478;9.116;2023-02-26T18:53:33;30.38;;;17.45;;
55575;SDS011;41437;45.478;9.116;2023-02-26T18:56:35;27.05;;;14.73;;
55575;SDS011;41437;45.478;9.116;2023-02-26T18:59:37;19.15;;;11.35;;
55575;SDS011;41437;45.478;9.116;2023-02-26T19:02:39;11.43;;;6.70;;
55575;SDS011;41437;45.478;9.116;2023-02-26T19:05:42;10.18;;;4.60;;
55575;SDS011;41437;45.478;9.116;2023-02-26T19:08:44;13.93;;;8.85;;
55575;SDS011;41437;45.478;9.116;2023-02-26T19:11:45;12.45;;;6.15;;
55575;SDS011;41437;45.478;9.116;2023-02-26T19:14:47;7.40;;;4.82;;